COOK1: Arkansas River Nr Coolidge, KS

                                SHEF ID:       COOK1     ARKANSAS R NR COOLIDGE, KS
STATION TYPE:
Regulating: Stage = 8.00, Flow = 2041

PRECIP STAGE STAGE(2) RIV-FLOW WTR-TEMP CONDUCT BAT-LOAD
in ft ft cfs F umho/cm volt
Ccp-Rev Ccp-Rev Ccp-Rev Ccp-Rev Ccp-Rev Ccp-Rev Ccp-Rev
(America/Chicago)
04/25 00:00 0.00 1.72 ---- 13 55.78 7310 12.53
04/25 01:00 0.00 1.72 ---- 13 54.75 7351 12.50
04/25 02:00 0.00 1.72 ---- 13 54.18 7373 12.50
04/25 03:00 0.00 1.72 ---- 13 53.80 7380 12.47
04/25 04:00 0.00 1.72 ---- 13 53.51 7373 12.46
04/25 05:00 0.00 1.72 ---- 13 53.31 7348 12.44
04/25 06:00 0.00 1.72 ---- 13 52.81 7330 12.42
04/25 07:00 0.00 1.72 ---- 13 51.39 7355 12.40
04/25 08:00 0.00 1.72 ---- 13 50.23 7402 12.39
04/25 09:00 0.00 1.73 ---- 14 50.92 7418 12.84
04/25 10:00 0.00 1.73 ---- 14 53.60 7403 13.16
04/25 11:00 0.00 1.74 ---- 14 56.28 7373 13.24
04/25 12:00 0.00 1.75 ---- 15 61.05 7344 13.49
04/25 13:00 0.00 1.75 ---- 15 65.68 7268 13.64
04/25 14:00 0.00 1.75 ---- 15 69.73 7124 13.91
04/25 15:00 0.00 1.76 ---- 15 72.61 7011 14.14
04/25 16:00 0.00 1.76 ---- 15 74.21 6959 14.21
04/25 17:00 0.00 1.76 ---- 15 74.05 6930 14.21
04/25 18:00 0.00 1.77 ---- 15 71.96 6948 14.04
04/25 19:00 0.00 1.76 ---- 15 68.81 6941 13.78
04/25 20:00 0.00 1.76 ---- 15 65.14 6910 13.41
04/25 21:00 0.00 1.76 ---- 15 61.48 6925 12.86
04/25 22:00 0.00 1.76 ---- 15 58.32 7011 12.57
04/25 23:00 0.00 1.76 ---- 15 56.50 7083 12.50
Data processed at Sun 26Apr2026 04:30 GMT

NOTICE: If you are parsing this page

Please convert to using our Data API. Starting early 2026 we will be migrating to: https://water.usace.army.mil with modern pages rendered in JavaScript. When this migration completes you will no longer be able to scrape this page! CWMSDataAPI (CDA)

Timeseries IDs (TSIDs)

TSIDs used from left to right in the data table
COOL.Precip-Inc.Total.1Hour.1Hour.Ccp-Rev
COOL.Stage.Inst.1Hour.0.Ccp-Rev
COOL.Stage-Alt.Inst.1Hour.0.Ccp-Rev
COOL.Flow.Inst.1Hour.0.Ccp-Rev
COOL.Temp-Water.Inst.1Hour.0.Ccp-Rev
COOL.Cond.Inst.1Hour.0.Ccp-Rev
COOL.Volt-Battery Load.Inst.1Hour.0.Ccp-Rev

                            

All information presented herein is the property of the government of the United States of America and may be revised or deleted at any time without prior notice. Dissemination of this information without the expressed written consent of the Public Affairs Office, Tulsa District U.S. Army Corps of Engineers is strictly prohibited. These data are gathered electronically and, as presented, have NOT undergone any form of quality control. These data are NOT guaranteed to be valid or correct.